Terminal Aerodrome Forecast
Issued by NWS

Home | Current Version | Previous Version | Text Only | Print | Product List | Glossary On
Versions: 1 2 3 4 5 6 7 8 9 10 11 12 13 14 15
578
FTUS43 KMQT 112333
TAFCMX
TAF
KCMX 112333Z 1200/1224 26011G18KT 3SM -SHSN BLSN BKN018
     FM120300 30015G23KT 3SM -SHSN BLSN OVC022
     FM121000 33017G24KT 3SM -SHSN BLSN OVC015
     FM121200 34019G26KT 2SM -SHSN BLSN BKN012=

USA.gov is the U.S. government's official web portal to all federal, state and local government web resources and services.